sensor_id;sensor_type;location;lat;lon;timestamp;P1;durP1;ratioP1;P2;durP2;ratioP2
28802;SDS011;15949;55.656;37.422;2024-03-02T00:03:32;85.82;;;44.17;;
28802;SDS011;15949;55.656;37.422;2024-03-02T00:08:37;81.57;;;43.35;;
28802;SDS011;15949;55.656;37.422;2024-03-02T00:13:44;89.35;;;44.20;;
28802;SDS011;15949;55.656;37.422;2024-03-02T00:18:51;80.05;;;44.33;;
28802;SDS011;15949;55.656;37.422;2024-03-02T00:23:57;81.97;;;43.90;;
28802;SDS011;15949;55.656;37.422;2024-03-02T00:29:03;82.03;;;43.72;;
28802;SDS011;15949;55.656;37.422;2024-03-02T00:34:09;90.13;;;44.25;;
28802;SDS011;15949;55.656;37.422;2024-03-02T00:39:19;89.97;;;44.53;;
28802;SDS011;15949;55.656;37.422;2024-03-02T00:44:25;79.50;;;42.83;;
28802;SDS011;15949;55.656;37.422;2024-03-02T00:49:39;87.28;;;44.38;;
28802;SDS011;15949;55.656;37.422;2024-03-02T00:54:45;83.90;;;42.38;;
28802;SDS011;15949;55.656;37.422;2024-03-02T00:59:50;79.40;;;43.72;;
28802;SDS011;15949;55.656;37.422;2024-03-02T01:04:57;85.45;;;43.90;;
28802;SDS011;15949;55.656;37.422;2024-03-02T01:10:02;80.72;;;43.45;;
28802;SDS011;15949;55.656;37.422;2024-03-02T01:15:08;84.45;;;43.30;;
28802;SDS011;15949;55.656;37.422;2024-03-02T01:20:14;82.20;;;44.17;;
28802;SDS011;15949;55.656;37.422;2024-03-02T01:25:20;88.65;;;43.60;;
28802;SDS011;15949;55.656;37.422;2024-03-02T01:30:26;82.63;;;43.13;;
28802;SDS011;15949;55.656;37.422;2024-03-02T01:35:32;83.00;;;45.13;;
28802;SDS011;15949;55.656;37.422;2024-03-02T01:40:38;90.95;;;45.05;;
28802;SDS011;15949;55.656;37.422;2024-03-02T01:45:44;91.43;;;46.70;;
28802;SDS011;15949;55.656;37.422;2024-03-02T01:50:50;95.88;;;47.47;;
28802;SDS011;15949;55.656;37.422;2024-03-02T01:55:56;85.40;;;45.92;;
28802;SDS011;15949;55.656;37.422;2024-03-02T02:01:01;86.32;;;46.20;;
28802;SDS011;15949;55.656;37.422;2024-03-02T02:06:08;93.35;;;47.55;;
28802;SDS011;15949;55.656;37.422;2024-03-02T02:11:14;91.43;;;47.55;;
28802;SDS011;15949;55.656;37.422;2024-03-02T02:16:21;86.97;;;45.20;;
28802;SDS011;15949;55.656;37.422;2024-03-02T02:21:26;88.15;;;47.40;;
28802;SDS011;15949;55.656;37.422;2024-03-02T02:26:32;89.75;;;47.65;;
28802;SDS011;15949;55.656;37.422;2024-03-02T02:31:39;93.50;;;46.42;;
28802;SDS011;15949;55.656;37.422;2024-03-02T02:36:45;95.72;;;46.30;;
28802;SDS011;15949;55.656;37.422;2024-03-02T02:41:51;86.03;;;46.60;;
28802;SDS011;15949;55.656;37.422;2024-03-02T02:46:56;91.90;;;48.72;;
28802;SDS011;15949;55.656;37.422;2024-03-02T02:52:02;92.22;;;50.10;;
28802;SDS011;15949;55.656;37.422;2024-03-02T02:57:08;101.57;;;50.80;;
28802;SDS011;15949;55.656;37.422;2024-03-02T03:02:14;93.03;;;52.08;;
28802;SDS011;15949;55.656;37.422;2024-03-02T03:07:20;101.40;;;51.45;;
28802;SDS011;15949;55.656;37.422;2024-03-02T03:12:26;103.88;;;53.97;;
28802;SDS011;15949;55.656;37.422;2024-03-02T03:17:31;97.47;;;53.53;;
28802;SDS011;15949;55.656;37.422;2024-03-02T03:22:37;108.15;;;54.20;;
28802;SDS011;15949;55.656;37.422;2024-03-02T03:27:44;103.18;;;52.97;;
28802;SDS011;15949;55.656;37.422;2024-03-02T03:32:49;109.50;;;55.05;;
28802;SDS011;15949;55.656;37.422;2024-03-02T03:37:55;103.93;;;54.97;;
28802;SDS011;15949;55.656;37.422;2024-03-02T03:43:01;99.47;;;53.42;;
28802;SDS011;15949;55.656;37.422;2024-03-02T03:48:07;98.75;;;53.28;;
28802;SDS011;15949;55.656;37.422;2024-03-02T03:53:14;101.35;;;52.80;;
28802;SDS011;15949;55.656;37.422;2024-03-02T03:58:20;99.15;;;52.67;;
28802;SDS011;15949;55.656;37.422;2024-03-02T04:03:26;101.80;;;52.00;;
28802;SDS011;15949;55.656;37.422;2024-03-02T04:08:32;98.80;;;51.67;;
28802;SDS011;15949;55.656;37.422;2024-03-02T04:13:37;100.75;;;50.95;;
28802;SDS011;15949;55.656;37.422;2024-03-02T04:18:43;94.20;;;50.40;;
28802;SDS011;15949;55.656;37.422;2024-03-02T04:23:49;97.22;;;50.60;;
28802;SDS011;15949;55.656;37.422;2024-03-02T04:28:55;93.28;;;49.75;;
28802;SDS011;15949;55.656;37.422;2024-03-02T04:34:00;101.28;;;51.08;;
28802;SDS011;15949;55.656;37.422;2024-03-02T04:39:06;97.90;;;51.15;;
28802;SDS011;15949;55.656;37.422;2024-03-02T04:44:14;93.15;;;51.30;;
28802;SDS011;15949;55.656;37.422;2024-03-02T04:49:21;91.90;;;50.50;;
28802;SDS011;15949;55.656;37.422;2024-03-02T04:54:26;88.13;;;49.80;;
28802;SDS011;15949;55.656;37.422;2024-03-02T04:59:32;89.97;;;51.13;;
28802;SDS011;15949;55.656;37.422;2024-03-02T05:04:38;93.72;;;51.25;;
28802;SDS011;15949;55.656;37.422;2024-03-02T05:09:44;91.72;;;50.00;;
28802;SDS011;15949;55.656;37.422;2024-03-02T05:14:50;89.38;;;49.58;;
28802;SDS011;15949;55.656;37.422;2024-03-02T05:19:55;89.35;;;49.13;;
28802;SDS011;15949;55.656;37.422;2024-03-02T05:25:02;91.40;;;49.70;;
28802;SDS011;15949;55.656;37.422;2024-03-02T05:30:08;93.07;;;50.38;;
28802;SDS011;15949;55.656;37.422;2024-03-02T05:35:15;91.75;;;49.92;;
28802;SDS011;15949;55.656;37.422;2024-03-02T05:40:21;92.65;;;48.83;;
28802;SDS011;15949;55.656;37.422;2024-03-02T05:45:26;95.20;;;50.80;;
28802;SDS011;15949;55.656;37.422;2024-03-02T05:50:32;97.40;;;49.85;;
28802;SDS011;15949;55.656;37.422;2024-03-02T05:55:38;91.75;;;49.03;;
28802;SDS011;15949;55.656;37.422;2024-03-02T06:00:44;86.22;;;48.28;;
28802;SDS011;15949;55.656;37.422;2024-03-02T06:05:49;85.85;;;48.40;;
28802;SDS011;15949;55.656;37.422;2024-03-02T06:10:56;87.57;;;47.30;;
28802;SDS011;15949;55.656;37.422;2024-03-02T06:16:02;88.03;;;46.95;;
28802;SDS011;15949;55.656;37.422;2024-03-02T06:21:09;86.05;;;47.13;;
28802;SDS011;15949;55.656;37.422;2024-03-02T06:26:15;82.72;;;46.70;;
28802;SDS011;15949;55.656;37.422;2024-03-02T06:31:21;83.97;;;46.55;;
28802;SDS011;15949;55.656;37.422;2024-03-02T06:36:26;87.22;;;48.15;;
28802;SDS011;15949;55.656;37.422;2024-03-02T06:41:33;82.45;;;46.30;;
28802;SDS011;15949;55.656;37.422;2024-03-02T06:46:39;81.72;;;47.55;;
28802;SDS011;15949;55.656;37.422;2024-03-02T06:51:45;81.70;;;46.13;;
28802;SDS011;15949;55.656;37.422;2024-03-02T06:56:50;87.68;;;47.88;;
28802;SDS011;15949;55.656;37.422;2024-03-02T07:01:56;86.13;;;48.33;;
28802;SDS011;15949;55.656;37.422;2024-03-02T07:07:02;85.93;;;50.88;;
28802;SDS011;15949;55.656;37.422;2024-03-02T07:12:08;89.05;;;51.55;;
28802;SDS011;15949;55.656;37.422;2024-03-02T07:17:23;90.28;;;52.30;;
28802;SDS011;15949;55.656;37.422;2024-03-02T07:22:31;91.40;;;51.28;;
28802;SDS011;15949;55.656;37.422;2024-03-02T07:27:37;83.07;;;50.97;;
28802;SDS011;15949;55.656;37.422;2024-03-02T07:32:44;75.80;;;47.90;;
28802;SDS011;15949;55.656;37.422;2024-03-02T07:37:50;80.90;;;48.63;;
28802;SDS011;15949;55.656;37.422;2024-03-02T07:42:56;75.80;;;46.15;;
28802;SDS011;15949;55.656;37.422;2024-03-02T07:48:02;75.38;;;45.08;;
28802;SDS011;15949;55.656;37.422;2024-03-02T07:53:11;75.47;;;46.17;;
28802;SDS011;15949;55.656;37.422;2024-03-02T07:58:17;75.97;;;45.88;;
28802;SDS011;15949;55.656;37.422;2024-03-02T08:03:24;75.00;;;46.72;;
28802;SDS011;15949;55.656;37.422;2024-03-02T08:08:37;81.40;;;47.47;;
28802;SDS011;15949;55.656;37.422;2024-03-02T08:13:50;72.70;;;47.95;;
28802;SDS011;15949;55.656;37.422;2024-03-02T08:19:05;75.15;;;44.70;;
28802;SDS011;15949;55.656;37.422;2024-03-02T08:24:10;70.50;;;44.05;;
28802;SDS011;15949;55.656;37.422;2024-03-02T08:29:16;67.63;;;43.42;;
28802;SDS011;15949;55.656;37.422;2024-03-02T08:34:22;66.68;;;42.58;;
28802;SDS011;15949;55.656;37.422;2024-03-02T08:39:31;68.72;;;44.53;;
28802;SDS011;15949;55.656;37.422;2024-03-02T08:44:37;76.35;;;46.40;;
28802;SDS011;15949;55.656;37.422;2024-03-02T08:49:43;70.80;;;44.30;;
28802;SDS011;15949;55.656;37.422;2024-03-02T08:54:49;67.85;;;40.90;;
28802;SDS011;15949;55.656;37.422;2024-03-02T08:59:58;70.27;;;44.67;;
28802;SDS011;15949;55.656;37.422;2024-03-02T09:05:04;63.30;;;41.35;;
28802;SDS011;15949;55.656;37.422;2024-03-02T09:10:10;72.35;;;42.97;;
28802;SDS011;15949;55.656;37.422;2024-03-02T09:15:17;74.55;;;44.35;;
28802;SDS011;15949;55.656;37.422;2024-03-02T09:20:29;73.30;;;44.80;;
28802;SDS011;15949;55.656;37.422;2024-03-02T09:25:35;68.20;;;40.78;;
28802;SDS011;15949;55.656;37.422;2024-03-02T09:30:42;73.70;;;45.92;;
28802;SDS011;15949;55.656;37.422;2024-03-02T09:35:48;78.40;;;46.05;;
28802;SDS011;15949;55.656;37.422;2024-03-02T09:40:54;77.97;;;46.88;;
28802;SDS011;15949;55.656;37.422;2024-03-02T09:45:59;81.07;;;45.75;;
28802;SDS011;15949;55.656;37.422;2024-03-02T09:51:06;79.97;;;49.13;;
28802;SDS011;15949;55.656;37.422;2024-03-02T09:56:13;75.25;;;46.72;;
28802;SDS011;15949;55.656;37.422;2024-03-02T10:01:20;68.70;;;43.55;;
28802;SDS011;15949;55.656;37.422;2024-03-02T10:06:27;74.75;;;44.03;;
28802;SDS011;15949;55.656;37.422;2024-03-02T10:11:34;74.38;;;45.33;;
28802;SDS011;15949;55.656;37.422;2024-03-02T10:16:43;75.90;;;45.08;;
28802;SDS011;15949;55.656;37.422;2024-03-02T10:21:50;72.57;;;43.22;;
28802;SDS011;15949;55.656;37.422;2024-03-02T10:26:57;72.63;;;41.35;;
28802;SDS011;15949;55.656;37.422;2024-03-02T10:32:03;71.43;;;41.83;;
28802;SDS011;15949;55.656;37.422;2024-03-02T10:37:11;74.93;;;42.58;;
28802;SDS011;15949;55.656;37.422;2024-03-02T10:42:20;79.23;;;43.77;;
28802;SDS011;15949;55.656;37.422;2024-03-02T10:47:28;80.68;;;45.10;;
28802;SDS011;15949;55.656;37.422;2024-03-02T10:52:37;74.25;;;45.15;;
28802;SDS011;15949;55.656;37.422;2024-03-02T11:03:05;83.43;;;49.75;;
28802;SDS011;15949;55.656;37.422;2024-03-02T11:08:12;80.20;;;49.42;;
28802;SDS011;15949;55.656;37.422;2024-03-02T11:13:30;80.82;;;49.30;;
28802;SDS011;15949;55.656;37.422;2024-03-02T11:18:38;87.03;;;50.15;;
28802;SDS011;15949;55.656;37.422;2024-03-02T11:23:45;81.50;;;49.60;;
28802;SDS011;15949;55.656;37.422;2024-03-02T11:28:51;80.65;;;49.20;;
28802;SDS011;15949;55.656;37.422;2024-03-02T11:33:59;79.72;;;49.17;;
28802;SDS011;15949;55.656;37.422;2024-03-02T11:39:26;80.95;;;48.95;;
28802;SDS011;15949;55.656;37.422;2024-03-02T11:44:33;79.63;;;49.40;;
28802;SDS011;15949;55.656;37.422;2024-03-02T11:54:46;71.22;;;44.70;;
28802;SDS011;15949;55.656;37.422;2024-03-02T11:59:57;72.78;;;42.90;;
28802;SDS011;15949;55.656;37.422;2024-03-02T12:05:04;75.82;;;42.97;;
28802;SDS011;15949;55.656;37.422;2024-03-02T12:10:10;72.07;;;40.47;;
28802;SDS011;15949;55.656;37.422;2024-03-02T12:15:16;69.35;;;37.85;;
28802;SDS011;15949;55.656;37.422;2024-03-02T12:20:23;66.78;;;38.83;;
28802;SDS011;15949;55.656;37.422;2024-03-02T12:25:30;61.92;;;38.53;;
28802;SDS011;15949;55.656;37.422;2024-03-02T12:30:55;63.83;;;39.47;;
28802;SDS011;15949;55.656;37.422;2024-03-02T12:36:01;60.60;;;36.92;;
28802;SDS011;15949;55.656;37.422;2024-03-02T12:41:07;58.03;;;36.38;;
28802;SDS011;15949;55.656;37.422;2024-03-02T12:46:13;60.83;;;36.03;;
28802;SDS011;15949;55.656;37.422;2024-03-02T12:51:20;55.88;;;35.63;;
28802;SDS011;15949;55.656;37.422;2024-03-02T12:56:25;60.05;;;35.03;;
28802;SDS011;15949;55.656;37.422;2024-03-02T13:01:31;57.70;;;35.80;;
28802;SDS011;15949;55.656;37.422;2024-03-02T13:06:37;62.40;;;34.75;;
28802;SDS011;15949;55.656;37.422;2024-03-02T13:11:44;55.25;;;33.05;;
28802;SDS011;15949;55.656;37.422;2024-03-02T13:16:50;56.30;;;33.75;;
28802;SDS011;15949;55.656;37.422;2024-03-02T13:21:57;61.80;;;34.30;;
28802;SDS011;15949;55.656;37.422;2024-03-02T13:27:03;57.65;;;32.78;;
28802;SDS011;15949;55.656;37.422;2024-03-02T13:32:09;55.70;;;32.97;;
28802;SDS011;15949;55.656;37.422;2024-03-02T13:37:15;61.03;;;31.58;;
28802;SDS011;15949;55.656;37.422;2024-03-02T13:42:21;51.75;;;30.00;;
28802;SDS011;15949;55.656;37.422;2024-03-02T13:47:27;48.33;;;28.50;;
28802;SDS011;15949;55.656;37.422;2024-03-02T13:52:34;47.88;;;29.25;;
28802;SDS011;15949;55.656;37.422;2024-03-02T13:57:39;47.67;;;26.50;;
28802;SDS011;15949;55.656;37.422;2024-03-02T14:03:04;47.25;;;24.38;;
28802;SDS011;15949;55.656;37.422;2024-03-02T14:08:11;41.47;;;22.95;;
28802;SDS011;15949;55.656;37.422;2024-03-02T14:13:17;41.17;;;21.77;;
28802;SDS011;15949;55.656;37.422;2024-03-02T14:18:23;42.75;;;22.08;;
28802;SDS011;15949;55.656;37.422;2024-03-02T14:23:29;43.58;;;22.92;;
28802;SDS011;15949;55.656;37.422;2024-03-02T14:28:35;37.80;;;21.67;;
28802;SDS011;15949;55.656;37.422;2024-03-02T14:33:40;36.20;;;21.80;;
28802;SDS011;15949;55.656;37.422;2024-03-02T14:38:47;31.90;;;18.83;;
28802;SDS011;15949;55.656;37.422;2024-03-02T14:43:54;29.98;;;17.88;;
28802;SDS011;15949;55.656;37.422;2024-03-02T14:49:00;31.45;;;18.73;;
28802;SDS011;15949;55.656;37.422;2024-03-02T14:54:06;34.22;;;18.25;;
28802;SDS011;15949;55.656;37.422;2024-03-02T14:59:12;35.35;;;17.88;;
28802;SDS011;15949;55.656;37.422;2024-03-02T15:04:17;30.20;;;18.00;;
28802;SDS011;15949;55.656;37.422;2024-03-02T15:09:24;39.08;;;17.88;;
28802;SDS011;15949;55.656;37.422;2024-03-02T15:14:30;36.60;;;17.73;;
28802;SDS011;15949;55.656;37.422;2024-03-02T15:19:36;36.80;;;16.45;;
28802;SDS011;15949;55.656;37.422;2024-03-02T15:24:43;31.83;;;16.70;;
28802;SDS011;15949;55.656;37.422;2024-03-02T15:29:49;40.22;;;18.10;;
28802;SDS011;15949;55.656;37.422;2024-03-02T15:34:55;33.35;;;17.77;;
28802;SDS011;15949;55.656;37.422;2024-03-02T15:40:02;36.83;;;19.02;;
28802;SDS011;15949;55.656;37.422;2024-03-02T15:45:13;33.53;;;17.73;;
28802;SDS011;15949;55.656;37.422;2024-03-02T15:50:19;39.38;;;18.85;;
28802;SDS011;15949;55.656;37.422;2024-03-02T15:55:25;38.05;;;19.33;;
28802;SDS011;15949;55.656;37.422;2024-03-02T16:00:31;40.38;;;20.48;;
28802;SDS011;15949;55.656;37.422;2024-03-02T16:05:37;46.10;;;20.88;;
28802;SDS011;15949;55.656;37.422;2024-03-02T16:10:43;44.72;;;22.42;;
28802;SDS011;15949;55.656;37.422;2024-03-02T16:15:49;45.67;;;24.63;;
28802;SDS011;15949;55.656;37.422;2024-03-02T16:20:54;49.70;;;27.15;;
28802;SDS011;15949;55.656;37.422;2024-03-02T16:26:00;51.83;;;27.73;;
28802;SDS011;15949;55.656;37.422;2024-03-02T16:31:06;53.22;;;30.08;;
28802;SDS011;15949;55.656;37.422;2024-03-02T16:36:14;56.78;;;30.33;;
28802;SDS011;15949;55.656;37.422;2024-03-02T16:41:20;47.33;;;30.25;;
28802;SDS011;15949;55.656;37.422;2024-03-02T16:46:26;57.63;;;29.55;;
28802;SDS011;15949;55.656;37.422;2024-03-02T16:51:37;56.95;;;30.38;;
28802;SDS011;15949;55.656;37.422;2024-03-02T16:56:47;55.70;;;31.05;;
28802;SDS011;15949;55.656;37.422;2024-03-02T17:01:52;60.45;;;31.67;;
28802;SDS011;15949;55.656;37.422;2024-03-02T17:06:58;52.65;;;30.08;;
28802;SDS011;15949;55.656;37.422;2024-03-02T17:12:05;60.05;;;31.52;;
28802;SDS011;15949;55.656;37.422;2024-03-02T17:17:10;60.83;;;32.00;;
28802;SDS011;15949;55.656;37.422;2024-03-02T17:22:17;62.47;;;33.10;;
28802;SDS011;15949;55.656;37.422;2024-03-02T17:27:23;58.70;;;33.38;;
28802;SDS011;15949;55.656;37.422;2024-03-02T17:32:29;64.57;;;33.70;;
28802;SDS011;15949;55.656;37.422;2024-03-02T17:37:36;59.63;;;32.58;;
28802;SDS011;15949;55.656;37.422;2024-03-02T17:42:43;62.83;;;34.38;;
28802;SDS011;15949;55.656;37.422;2024-03-02T17:47:49;62.85;;;33.28;;
28802;SDS011;15949;55.656;37.422;2024-03-02T17:52:55;57.33;;;32.80;;
28802;SDS011;15949;55.656;37.422;2024-03-02T17:58:01;59.95;;;31.75;;
28802;SDS011;15949;55.656;37.422;2024-03-02T18:03:07;69.32;;;34.08;;
28802;SDS011;15949;55.656;37.422;2024-03-02T18:08:13;58.03;;;33.50;;
28802;SDS011;15949;55.656;37.422;2024-03-02T18:13:19;60.70;;;32.05;;
28802;SDS011;15949;55.656;37.422;2024-03-02T18:18:25;54.95;;;29.42;;
28802;SDS011;15949;55.656;37.422;2024-03-02T18:23:31;52.47;;;29.42;;
28802;SDS011;15949;55.656;37.422;2024-03-02T18:28:37;51.75;;;28.63;;
28802;SDS011;15949;55.656;37.422;2024-03-02T18:33:43;47.22;;;25.90;;
28802;SDS011;15949;55.656;37.422;2024-03-02T18:38:49;47.15;;;25.55;;
28802;SDS011;15949;55.656;37.422;2024-03-02T18:43:55;48.30;;;24.02;;
28802;SDS011;15949;55.656;37.422;2024-03-02T18:49:01;51.22;;;23.75;;
28802;SDS011;15949;55.656;37.422;2024-03-02T18:54:07;52.20;;;23.98;;
28802;SDS011;15949;55.656;37.422;2024-03-02T18:59:13;43.63;;;20.52;;
28802;SDS011;15949;55.656;37.422;2024-03-02T19:04:19;37.00;;;20.35;;
28802;SDS011;15949;55.656;37.422;2024-03-02T19:09:25;44.28;;;19.08;;
28802;SDS011;15949;55.656;37.422;2024-03-02T19:14:31;40.22;;;19.80;;
28802;SDS011;15949;55.656;37.422;2024-03-02T19:19:37;36.83;;;18.15;;
28802;SDS011;15949;55.656;37.422;2024-03-02T19:24:44;40.95;;;19.13;;
28802;SDS011;15949;55.656;37.422;2024-03-02T19:29:51;35.13;;;17.42;;
28802;SDS011;15949;55.656;37.422;2024-03-02T19:34:57;39.05;;;17.98;;
28802;SDS011;15949;55.656;37.422;2024-03-02T19:40:03;40.30;;;17.45;;
28802;SDS011;15949;55.656;37.422;2024-03-02T19:45:10;40.15;;;18.10;;
28802;SDS011;15949;55.656;37.422;2024-03-02T19:50:15;33.80;;;18.52;;
28802;SDS011;15949;55.656;37.422;2024-03-02T19:55:22;42.22;;;20.08;;
28802;SDS011;15949;55.656;37.422;2024-03-02T20:00:34;37.58;;;20.52;;
28802;SDS011;15949;55.656;37.422;2024-03-02T20:05:40;41.92;;;21.25;;
28802;SDS011;15949;55.656;37.422;2024-03-02T20:10:46;37.97;;;22.48;;
28802;SDS011;15949;55.656;37.422;2024-03-02T20:15:51;40.95;;;22.63;;
28802;SDS011;15949;55.656;37.422;2024-03-02T20:20:57;37.42;;;22.63;;
28802;SDS011;15949;55.656;37.422;2024-03-02T20:26:03;47.17;;;24.40;;
28802;SDS011;15949;55.656;37.422;2024-03-02T20:31:10;46.17;;;25.90;;
28802;SDS011;15949;55.656;37.422;2024-03-02T20:36:17;48.22;;;27.67;;
28802;SDS011;15949;55.656;37.422;2024-03-02T20:41:23;43.90;;;27.67;;
28802;SDS011;15949;55.656;37.422;2024-03-02T20:46:29;44.20;;;29.83;;
28802;SDS011;15949;55.656;37.422;2024-03-02T20:51:35;54.33;;;29.58;;
28802;SDS011;15949;55.656;37.422;2024-03-02T20:56:42;61.28;;;29.15;;
28802;SDS011;15949;55.656;37.422;2024-03-02T21:01:49;50.03;;;30.50;;
28802;SDS011;15949;55.656;37.422;2024-03-02T21:06:55;51.40;;;30.95;;
28802;SDS011;15949;55.656;37.422;2024-03-02T21:12:00;53.35;;;28.88;;
28802;SDS011;15949;55.656;37.422;2024-03-02T21:17:10;53.35;;;29.90;;
28802;SDS011;15949;55.656;37.422;2024-03-02T21:22:16;55.47;;;30.02;;
28802;SDS011;15949;55.656;37.422;2024-03-02T21:27:21;51.67;;;28.60;;
28802;SDS011;15949;55.656;37.422;2024-03-02T21:32:27;50.83;;;29.83;;
28802;SDS011;15949;55.656;37.422;2024-03-02T21:37:33;49.78;;;30.75;;
28802;SDS011;15949;55.656;37.422;2024-03-02T21:42:39;51.58;;;31.00;;
28802;SDS011;15949;55.656;37.422;2024-03-02T21:47:45;53.38;;;29.67;;
28802;SDS011;15949;55.656;37.422;2024-03-02T21:52:51;48.38;;;27.90;;
28802;SDS011;15949;55.656;37.422;2024-03-02T21:57:59;55.00;;;28.40;;
28802;SDS011;15949;55.656;37.422;2024-03-02T22:03:04;55.95;;;28.60;;
28802;SDS011;15949;55.656;37.422;2024-03-02T22:08:11;47.35;;;24.80;;
28802;SDS011;15949;55.656;37.422;2024-03-02T22:13:17;44.63;;;22.80;;
28802;SDS011;15949;55.656;37.422;2024-03-02T22:18:23;45.38;;;20.98;;
28802;SDS011;15949;55.656;37.422;2024-03-02T22:23:29;41.10;;;21.20;;
28802;SDS011;15949;55.656;37.422;2024-03-02T22:28:35;37.50;;;19.42;;
28802;SDS011;15949;55.656;37.422;2024-03-02T22:33:41;41.33;;;19.52;;
28802;SDS011;15949;55.656;37.422;2024-03-02T22:38:47;37.88;;;19.70;;
28802;SDS011;15949;55.656;37.422;2024-03-02T22:43:53;41.92;;;19.55;;
28802;SDS011;15949;55.656;37.422;2024-03-02T22:48:59;38.50;;;19.65;;
28802;SDS011;15949;55.656;37.422;2024-03-02T22:54:05;38.08;;;20.10;;
28802;SDS011;15949;55.656;37.422;2024-03-02T22:59:14;42.33;;;20.90;;
28802;SDS011;15949;55.656;37.422;2024-03-02T23:04:20;46.33;;;19.73;;
28802;SDS011;15949;55.656;37.422;2024-03-02T23:09:26;41.88;;;19.30;;
28802;SDS011;15949;55.656;37.422;2024-03-02T23:14:32;36.80;;;19.60;;
28802;SDS011;15949;55.656;37.422;2024-03-02T23:19:38;45.25;;;21.20;;
28802;SDS011;15949;55.656;37.422;2024-03-02T23:24:44;40.42;;;19.50;;
28802;SDS011;15949;55.656;37.422;2024-03-02T23:29:50;37.90;;;19.88;;
28802;SDS011;15949;55.656;37.422;2024-03-02T23:34:55;37.30;;;20.45;;
28802;SDS011;15949;55.656;37.422;2024-03-02T23:40:02;44.42;;;20.50;;
28802;SDS011;15949;55.656;37.422;2024-03-02T23:45:08;42.90;;;20.25;;
28802;SDS011;15949;55.656;37.422;2024-03-02T23:50:14;40.05;;;20.02;;
28802;SDS011;15949;55.656;37.422;2024-03-02T23:55:20;39.65;;;21.25;;
